Time;durP1;ratioP1;P1;durP2;ratioP2;P2;SDS_P1;SDS_P2;PMS_P1;PMS_P2;Temp;Humidity;BMP_temperature;BMP_pressure;BME280_temperature;BME280_humidity;BME280_pressure;Samples;Min_cycle;Max_cycle;Signal;HPM_P1;HPM_P2
2021/07/19 00:01:12;;;;;;;3.75;1.95;;;;;;;20.87;nan;100776.56;4992183;28;20072;-78
2021/07/19 00:03:38;;;;;;;6.20;2.40;;;;;;;20.81;nan;100778.66;5011771;28;20042;-78
2021/07/19 00:06:03;;;;;;;6.88;2.47;;;;;;;20.68;nan;100789.06;4992444;28;20038;-78
2021/07/19 00:08:28;;;;;;;5.90;2.38;;;;;;;20.74;nan;100783.41;5012763;28;20042;-78
2021/07/19 00:10:54;;;;;;;6.38;2.60;;;;;;;20.65;nan;100790.06;5011899;28;20419;-78
2021/07/19 00:13:19;;;;;;;5.95;2.13;;;;;;;20.56;nan;100790.44;5012012;28;20350;-78
2021/07/19 00:15:45;;;;;;;6.55;2.33;;;;;;;20.52;nan;100789.69;4994393;28;20060;-78
2021/07/19 00:18:10;;;;;;;6.28;2.42;;;;;;;20.49;nan;100788.97;5010876;28;20093;-78
2021/07/19 00:20:35;;;;;;;6.30;2.40;;;;;;;20.51;nan;100793.31;5013338;28;20045;-78
2021/07/19 00:23:01;;;;;;;4.63;2.25;;;;;;;20.45;nan;100782.84;5010348;28;20548;-78
2021/07/19 00:25:26;;;;;;;8.00;2.40;;;;;;;20.42;nan;100793.69;5013323;28;20065;-79
2021/07/19 00:27:55;;;;;;;6.07;2.53;;;;;;;20.41;nan;100791.97;5010165;28;20037;-78
2021/07/19 00:30:21;;;;;;;7.03;2.25;;;;;;;20.41;nan;100788.38;4994193;28;20046;-78
2021/07/19 00:32:47;;;;;;;4.78;2.45;;;;;;;20.38;nan;100788.53;5011019;28;20038;-78
2021/07/19 00:35:13;;;;;;;5.45;2.17;;;;;;;20.35;nan;100789.53;5011517;28;20045;-78
2021/07/19 00:37:38;;;;;;;6.70;2.15;;;;;;;20.30;nan;100789.75;4993743;28;20054;-78
2021/07/19 00:40:19;;;;;;;4.55;2.30;;;;;;;20.29;nan;100792.47;5010020;28;20542;-79
2021/07/19 00:42:46;;;;;;;5.85;2.55;;;;;;;20.23;nan;100798.09;5010488;28;20038;-79
2021/07/19 00:45:17;;;;;;;7.38;2.20;;;;;;;20.12;nan;100790.50;4990843;28;20038;-78
2021/07/19 00:47:45;;;;;;;6.90;2.45;;;;;;;20.13;nan;100794.94;5008919;28;20034;-78
2021/07/19 00:50:12;;;;;;;5.18;2.10;;;;;;;20.22;nan;100796.34;4994867;28;20030;-78
2021/07/19 00:52:40;;;;;;;6.20;2.25;;;;;;;20.27;nan;100799.69;4994131;28;20022;-78
2021/07/19 00:55:08;;;;;;;5.88;2.10;;;;;;;20.37;nan;100806.44;4994045;28;20485;-78
2021/07/19 00:57:38;;;;;;;8.50;2.33;;;;;;;20.38;nan;100797.44;4994049;28;20072;-78
2021/07/19 01:00:09;;;;;;;3.67;1.77;;;;;;;20.42;nan;100801.75;5007713;28;20045;-78
2021/07/19 01:02:36;;;;;;;5.25;2.38;;;;;;;20.38;nan;100802.78;4990334;28;20029;-79
2021/07/19 01:05:04;;;;;;;5.70;2.05;;;;;;;20.44;nan;100807.06;5007593;28;20040;-79
2021/07/19 01:07:32;;;;;;;4.70;2.17;;;;;;;20.45;nan;100806.09;4990176;28;20076;-78
2021/07/19 01:09:59;;;;;;;10.85;1.90;;;;;;;20.47;nan;100809.59;4989287;28;20037;-78
2021/07/19 01:12:25;;;;;;;5.68;2.33;;;;;;;20.43;nan;100802.59;4990280;28;20034;-79
2021/07/19 01:14:58;;;;;;;5.28;1.75;;;;;;;20.45;nan;100808.78;4988790;28;20042;-78
2021/07/19 01:17:23;;;;;;;5.38;2.00;;;;;;;20.43;nan;100816.00;4990933;28;20033;-81
2021/07/19 01:19:53;;;;;;;5.40;2.13;;;;;;;20.46;nan;100824.81;4990344;28;20026;-81
2021/07/19 01:22:58;;;;;;;5.55;2.47;;;;;;;20.37;nan;100806.44;5009718;28;20038;-81
2021/07/19 01:25:42;;;;;;;4.85;1.88;;;;;;;20.35;nan;100813.66;5006057;28;20038;-81
2021/07/19 01:28:32;;;;;;;5.82;2.05;;;;;;;20.28;nan;100813.06;5006627;28;20045;-80
2021/07/19 01:31:07;;;;;;;5.63;2.20;;;;;;;20.24;nan;100821.28;4990677;28;20034;-81
2021/07/19 01:33:34;;;;;;;5.97;2.00;;;;;;;20.21;nan;100824.09;4990576;28;20062;-81
2021/07/19 01:36:01;;;;;;;5.65;1.95;;;;;;;20.17;nan;100809.06;4960723;28;20026;-80
2021/07/19 01:38:28;;;;;;;6.22;2.03;;;;;;;20.20;nan;100825.00;5008947;28;20057;-81
2021/07/19 01:40:58;;;;;;;4.45;2.17;;;;;;;20.12;nan;100818.19;4992707;28;20037;-80
2021/07/19 01:43:26;;;;;;;5.38;2.20;;;;;;;20.10;nan;100822.72;4991365;28;20038;-81
2021/07/19 01:45:52;;;;;;;7.05;2.17;;;;;;;20.04;nan;100820.31;5009689;28;20037;-81
2021/07/19 01:48:24;;;;;;;6.68;2.35;;;;;;;19.99;nan;100816.94;4991388;28;20479;-81
2021/07/19 01:50:50;;;;;;;7.05;2.85;;;;;;;19.99;nan;100821.41;5009562;28;20092;-81
2021/07/19 01:53:20;;;;;;;6.00;2.38;;;;;;;19.97;nan;100818.81;4991806;28;20595;-81
2021/07/19 01:55:48;;;;;;;4.95;2.35;;;;;;;19.94;nan;100818.94;4991511;28;20496;-81
2021/07/19 01:58:17;;;;;;;5.20;2.22;;;;;;;19.84;nan;100829.13;5009698;28;20034;-81
2021/07/19 02:00:57;;;;;;;6.25;2.50;;;;;;;19.79;nan;100833.81;4970991;28;20485;-81
2021/07/19 02:03:23;;;;;;;7.93;2.50;;;;;;;19.81;nan;100837.28;4989728;28;20437;-81
2021/07/19 02:05:54;;;;;;;6.50;3.22;;;;;;;19.82;nan;100838.16;4960836;28;20187;-81
2021/07/19 02:08:22;;;;;;;5.70;2.58;;;;;;;19.81;nan;100836.44;4990792;28;20323;-81
2021/07/19 02:11:26;;;;;;;5.85;2.40;;;;;;;19.77;nan;100838.34;4984274;28;20042;-81
2021/07/19 02:13:52;;;;;;;6.43;2.55;;;;;;;19.79;nan;100838.28;4994503;28;20034;-81
2021/07/19 02:16:24;;;;;;;8.02;2.88;;;;;;;19.77;nan;100838.34;5003432;28;20041;-82
2021/07/19 02:18:51;;;;;;;4.50;2.55;;;;;;;19.79;nan;100838.28;4993470;28;20033;-81
2021/07/19 02:21:23;;;;;;;6.43;2.35;;;;;;;19.82;nan;100849.75;5002987;28;20102;-81
2021/07/19 02:24:08;;;;;;;4.55;2.65;;;;;;;19.81;nan;100845.34;5008462;28;20052;-81
2021/07/19 02:26:40;;;;;;;7.30;3.08;;;;;;;19.83;nan;100853.28;4991524;28;20053;-81
2021/07/19 02:29:08;;;;;;;7.30;2.50;;;;;;;19.90;nan;100866.38;4976573;28;20096;-81
2021/07/19 02:31:33;;;;;;;5.53;2.58;;;;;;;19.96;nan;100869.75;5009548;28;20113;-81
2021/07/19 02:34:02;;;;;;;6.22;3.08;;;;;;;19.94;nan;100869.84;4976268;28;20035;-81
2021/07/19 02:36:29;;;;;;;5.50;2.40;;;;;;;19.87;nan;100865.63;4993301;28;20037;-82
2021/07/19 02:38:55;;;;;;;5.85;2.60;;;;;;;19.84;nan;100858.59;4991705;28;20026;-81
2021/07/19 02:41:27;;;;;;;4.68;2.53;;;;;;;19.85;nan;100875.53;5009471;28;20042;-81
2021/07/19 02:44:03;;;;;;;5.80;2.50;;;;;;;19.90;nan;100870.88;4976035;28;20121;-81
2021/07/19 02:46:49;;;;;;;9.13;2.80;;;;;;;19.90;nan;100870.88;4986988;28;20034;-81
2021/07/19 02:49:15;;;;;;;7.07;2.45;;;;;;;19.85;nan;100872.84;4983447;28;20040;-81
2021/07/19 02:51:44;;;;;;;7.40;2.80;;;;;;;19.83;nan;100874.72;4981573;28;20045;-81
2021/07/19 02:54:16;;;;;;;6.40;2.20;;;;;;;19.75;nan;100880.38;4984670;28;20038;-81
2021/07/19 02:56:42;;;;;;;7.07;2.72;;;;;;;19.69;nan;100889.50;4995668;28;20436;-81
2021/07/19 02:59:08;;;;;;;6.65;2.58;;;;;;;19.69;nan;100891.31;4988888;28;20099;-81
2021/07/19 03:01:34;;;;;;;7.13;2.30;;;;;;;19.75;nan;100887.53;4985954;28;20033;-81
2021/07/19 03:04:01;;;;;;;4.93;2.53;;;;;;;19.70;nan;100901.09;4992986;28;20029;-81
2021/07/19 03:06:35;;;;;;;4.88;2.53;;;;;;;19.77;nan;100904.41;4969127;28;20062;-81
2021/07/19 03:09:05;;;;;;;6.00;2.72;;;;;;;19.81;nan;100900.72;4972090;28;20041;-81
2021/07/19 03:11:41;;;;;;;8.02;3.15;;;;;;;19.76;nan;100900.00;4990323;28;20026;-81
2021/07/19 03:14:14;;;;;;;6.00;2.80;;;;;;;19.69;nan;100897.53;4976217;28;20041;-81
2021/07/19 03:16:43;;;;;;;8.10;2.88;;;;;;;19.62;nan;100890.66;4998456;28;20094;-81
2021/07/19 03:19:13;;;;;;;8.25;2.90;;;;;;;19.55;nan;100889.16;4962393;28;20065;-80
2021/07/19 03:21:42;;;;;;;6.57;2.97;;;;;;;19.43;nan;100889.59;4991648;28;20030;-81
2021/07/19 03:24:16;;;;;;;6.18;2.90;;;;;;;19.37;nan;100895.19;4990922;28;20046;-81
2021/07/19 03:26:42;;;;;;;7.22;3.10;;;;;;;19.22;nan;100899.28;4992599;28;20485;-82
2021/07/19 03:29:10;;;;;;;4.43;2.80;;;;;;;19.24;nan;100903.66;5011152;28;20041;-81
2021/07/19 03:31:47;;;;;;;7.65;3.33;;;;;;;19.22;nan;100899.28;4993735;28;20160;-82
2021/07/19 03:34:14;;;;;;;4.65;2.85;;;;;;;19.20;nan;100903.81;4989082;28;20045;-83
2021/07/19 03:36:42;;;;;;;5.57;3.08;;;;;;;19.19;nan;100900.25;4995022;28;20475;-82
2021/07/19 03:39:08;;;;;;;8.07;3.28;;;;;;;19.15;nan;100900.41;4995521;28;20069;-81
2021/07/19 03:41:48;;;;;;;6.95;3.42;;;;;;;19.09;nan;100906.88;4994240;28;20022;-81
2021/07/19 03:44:16;;;;;;;5.57;3.50;;;;;;;19.05;nan;100907.94;5009476;28;20050;-80
2021/07/19 03:46:43;;;;;;;5.82;3.00;;;;;;;19.02;nan;100908.91;4978650;28;20022;-81
2021/07/19 03:49:12;;;;;;;7.10;3.42;;;;;;;19.03;nan;100913.31;4993733;28;20030;-82
2021/07/19 03:51:38;;;;;;;8.65;3.33;;;;;;;19.08;nan;100915.84;4961981;28;20026;-80
2021/07/19 03:54:04;;;;;;;6.97;3.42;;;;;;;19.12;nan;100920.13;4993564;28;20030;-81
2021/07/19 03:56:32;;;;;;;7.53;3.58;;;;;;;19.13;nan;100927.25;4992129;28;20045;-81
2021/07/19 03:58:59;;;;;;;15.10;3.78;;;;;;;19.15;nan;100920.06;5011703;28;20038;-81
2021/07/19 04:01:27;;;;;;;6.43;3.10;;;;;;;19.19;nan;100924.34;4993385;28;20037;-81
2021/07/19 04:03:55;;;;;;;6.60;3.33;;;;;;;19.17;nan;100926.19;5010505;28;20042;-81
2021/07/19 04:06:30;;;;;;;6.30;3.40;;;;;;;19.27;nan;100921.41;4993551;28;20125;-81
2021/07/19 04:08:56;;;;;;;5.55;3.05;;;;;;;19.35;nan;100921.13;4976062;28;20508;-80
2021/07/19 04:11:26;;;;;;;6.20;3.40;;;;;;;19.35;nan;100924.66;4992537;28;20030;-81
2021/07/19 04:13:57;;;;;;;7.88;3.28;;;;;;;19.38;nan;100923.69;5010891;28;20077;-81
2021/07/19 04:16:24;;;;;;;7.05;3.80;;;;;;;19.39;nan;100922.78;4991677;28;20030;-80
2021/07/19 04:18:51;;;;;;;7.15;3.75;;;;;;;19.41;nan;100927.16;4994206;28;20452;-80
2021/07/19 04:21:20;;;;;;;7.18;3.25;;;;;;;19.44;nan;100931.47;5011308;28;20041;-81
2021/07/19 04:23:47;;;;;;;7.47;3.58;;;;;;;19.42;nan;100936.91;4989504;28;20029;-80
2021/07/19 04:26:19;;;;;;;8.55;3.63;;;;;;;19.39;nan;100941.50;5006722;28;20041;-81
2021/07/19 04:28:53;;;;;;;7.03;3.72;;;;;;;19.29;nan;100949.00;5011774;28;20034;-80
2021/07/19 04:31:20;;;;;;;7.95;4.03;;;;;;;19.21;nan;100951.06;4996059;28;20056;-81
2021/07/19 04:33:55;;;;;;;7.88;4.30;;;;;;;19.12;nan;100948.69;4987874;28;20438;-82
2021/07/19 04:36:28;;;;;;;8.13;4.10;;;;;;;19.14;nan;100947.72;4983520;28;20091;-80
2021/07/19 04:38:55;;;;;;;8.75;4.80;;;;;;;19.15;nan;100951.25;4979967;28;20065;-81
2021/07/19 04:41:21;;;;;;;9.20;4.55;;;;;;;19.12;nan;100956.72;5005317;28;20042;-81
2021/07/19 04:43:47;;;;;;;11.95;4.82;;;;;;;19.09;nan;100960.38;5002689;28;20035;-81
2021/07/19 04:46:14;;;;;;;7.22;4.47;;;;;;;19.07;nan;100962.22;5003542;28;20630;-80
2021/07/19 04:48:40;;;;;;;10.27;5.20;;;;;;;18.95;nan;100954.66;4990538;28;20145;-81
2021/07/19 04:51:05;;;;;;;10.75;6.05;;;;;;;18.89;nan;100960.19;5009009;28;20492;-82
2021/07/19 04:53:31;;;;;;;13.07;5.97;;;;;;;18.83;nan;100966.59;5010040;28;20046;-81
2021/07/19 04:55:58;;;;;;;11.45;6.05;;;;;;;18.71;nan;100973.22;5005385;28;20037;-81
2021/07/19 04:58:26;;;;;;;13.73;5.85;;;;;;;18.57;nan;100975.44;4992281;28;20042;-81
2021/07/19 05:01:06;;;;;;;10.02;5.20;;;;;;;18.35;nan;100965.44;4974547;28;20041;-81
2021/07/19 05:03:38;;;;;;;11.50;6.60;;;;;;;18.36;nan;100987.69;5003444;28;20038;-81
2021/07/19 05:06:05;;;;;;;9.75;5.47;;;;;;;18.34;nan;100990.44;5009297;28;20052;-81
2021/07/19 05:08:31;;;;;;;9.77;5.93;;;;;;;18.34;nan;100982.41;5016961;28;20042;-80
2021/07/19 05:11:01;;;;;;;15.18;6.47;;;;;;;18.28;nan;100995.94;5019641;28;20489;-80
2021/07/19 05:13:27;;;;;;;12.98;5.63;;;;;;;18.32;nan;100986.94;4982552;28;20122;-80
2021/07/19 05:15:53;;;;;;;12.68;5.30;;;;;;;18.20;nan;100987.28;5006913;28;20449;-80
2021/07/19 05:18:18;;;;;;;11.55;5.88;;;;;;;18.23;nan;100995.22;4971029;28;20038;-80
2021/07/19 05:20:44;;;;;;;17.73;6.90;;;;;;;18.22;nan;101001.50;5005334;28;20034;-80
2021/07/19 05:23:10;;;;;;;15.32;5.43;;;;;;;18.24;nan;100994.31;5009162;28;20026;-80
2021/07/19 05:25:35;;;;;;;10.00;5.53;;;;;;;18.28;nan;100997.75;5016122;28;20427;-80
2021/07/19 05:28:12;;;;;;;12.38;6.40;;;;;;;18.33;nan;101004.69;5017060;28;20035;-80
2021/07/19 05:30:40;;;;;;;12.63;5.93;;;;;;;18.27;nan;100998.69;5017186;28;20034;-80
2021/07/19 05:33:07;;;;;;;13.30;5.82;;;;;;;18.18;nan;101010.50;5017742;28;20040;-80
2021/07/19 05:35:34;;;;;;;12.85;6.18;;;;;;;18.23;nan;101000.56;5011023;28;20101;-80
2021/07/19 05:37:59;;;;;;;11.18;5.47;;;;;;;18.33;nan;101004.69;4998880;28;20054;-80
2021/07/19 05:40:25;;;;;;;12.23;5.82;;;;;;;18.40;nan;101000.06;5019109;28;20114;-80
2021/07/19 05:42:50;;;;;;;11.63;6.20;;;;;;;18.39;nan;100998.28;4966894;28;20038;-80
2021/07/19 05:45:16;;;;;;;15.98;6.13;;;;;;;18.37;nan;100989.47;5002053;28;20038;-80
2021/07/19 05:47:42;;;;;;;8.70;5.57;;;;;;;18.34;nan;101003.78;5011705;28;20042;-80
2021/07/19 05:50:08;;;;;;;11.05;5.68;;;;;;;18.44;nan;101007.03;5018790;28;20041;-80
2021/07/19 05:52:34;;;;;;;12.70;6.07;;;;;;;18.43;nan;101007.09;4983289;28;20038;-80
2021/07/19 05:55:04;;;;;;;12.07;5.53;;;;;;;18.38;nan;101010.78;5017835;28;20085;-80
2021/07/19 05:57:29;;;;;;;11.27;5.28;;;;;;;18.27;nan;101006.69;5016273;28;20065;-80
2021/07/19 05:59:58;;;;;;;10.60;3.25;;;;;;;18.16;nan;101012.38;5000111;28;20027;-80
2021/07/19 06:02:24;;;;;;;8.20;3.17;;;;;;;18.09;nan;101017.00;5000693;28;20061;-79
2021/07/19 06:04:50;;;;;;;11.15;3.42;;;;;;;17.95;nan;101017.41;5000374;28;20027;-80
2021/07/19 06:07:15;;;;;;;8.80;3.17;;;;;;;18.01;nan;101028.84;5002147;28;20038;-80
2021/07/19 06:09:41;;;;;;;12.63;3.63;;;;;;;17.92;nan;101029.97;4999513;28;20045;-79
2021/07/19 06:12:06;;;;;;;12.63;4.00;;;;;;;18.00;nan;101037.75;5020381;28;20045;-79
2021/07/19 06:14:32;;;;;;;13.48;3.50;;;;;;;17.95;nan;101030.78;4999901;28;20022;-80
2021/07/19 06:16:57;;;;;;;12.38;4.05;;;;;;;18.01;nan;101035.06;4978717;28;20037;-80
2021/07/19 06:19:22;;;;;;;11.05;3.47;;;;;;;18.01;nan;101026.19;5001690;28;20045;-79
2021/07/19 06:21:48;;;;;;;11.77;3.55;;;;;;;18.00;nan;101021.72;5019529;28;20363;-79
2021/07/19 06:24:14;;;;;;;11.35;3.35;;;;;;;18.06;nan;101030.47;5002137;28;20076;-78
2021/07/19 06:26:39;;;;;;;12.23;3.47;;;;;;;18.13;nan;101036.47;5001404;28;20094;-78
2021/07/19 06:29:05;;;;;;;9.70;3.17;;;;;;;18.07;nan;101032.19;5019441;28;20034;-79
2021/07/19 06:31:31;;;;;;;13.48;3.88;;;;;;;18.00;nan;101035.09;4982089;28;20034;-78
2021/07/19 06:33:57;;;;;;;9.73;3.35;;;;;;;17.99;nan;101036.88;5007001;28;20045;-78
2021/07/19 06:36:22;;;;;;;10.90;3.85;;;;;;;18.01;nan;101035.06;4985540;28;20050;-78
2021/07/19 06:38:48;;;;;;;8.23;3.20;;;;;;;17.86;nan;101039.03;5015635;28;20097;-78
2021/07/19 06:41:13;;;;;;;8.50;3.20;;;;;;;17.79;nan;101028.53;4999485;28;20062;-79
2021/07/19 06:43:39;;;;;;;8.43;3.53;;;;;;;17.92;nan;101046.88;5000325;28;20041;-78
2021/07/19 06:46:04;;;;;;;8.70;3.53;;;;;;;17.99;nan;101036.00;4981374;28;20042;-78
2021/07/19 06:48:30;;;;;;;9.05;3.58;;;;;;;18.00;nan;101037.75;5016349;28;20504;-78
2021/07/19 06:50:55;;;;;;;12.30;3.70;;;;;;;17.94;nan;101037.00;5022604;28;20041;-79
2021/07/19 06:53:20;;;;;;;13.50;4.00;;;;;;;18.01;nan;101034.19;5019081;28;20038;-78
2021/07/19 06:55:46;;;;;;;10.07;3.50;;;;;;;18.18;nan;101048.81;5018725;28;20034;-79
2021/07/19 06:58:11;;;;;;;10.63;4.10;;;;;;;18.27;nan;101036.97;5004278;28;20037;-78
2021/07/19 07:00:36;;;;;;;11.75;4.10;;;;;;;18.25;nan;101038.78;5020182;28;20038;-78
2021/07/19 07:03:02;;;;;;;11.02;4.07;;;;;;;18.35;nan;101040.28;5020870;28;20038;-78
2021/07/19 07:05:27;;;;;;;10.70;3.75;;;;;;;18.42;nan;101050.75;5021531;28;20057;-78
2021/07/19 07:07:52;;;;;;;12.13;3.95;;;;;;;18.40;nan;101037.47;5001686;28;20030;-78
2021/07/19 07:10:18;;;;;;;10.73;3.78;;;;;;;18.46;nan;101031.91;5021373;28;20045;-78
2021/07/19 07:12:43;;;;;;;9.88;3.80;;;;;;;18.58;nan;101033.34;5000628;28;20038;-78
2021/07/19 07:15:09;;;;;;;12.15;4.25;;;;;;;18.75;nan;101032.84;5001265;28;20037;-79
2021/07/19 07:17:35;;;;;;;10.50;4.35;;;;;;;18.66;nan;101055.38;5016426;28;20106;-78
2021/07/19 07:20:00;;;;;;;12.45;4.95;;;;;;;18.62;nan;101033.19;5003264;28;20038;-78
2021/07/19 07:22:25;;;;;;;8.35;3.67;;;;;;;18.54;nan;101050.41;5020576;28;20077;-78
2021/07/19 07:24:51;;;;;;;12.57;4.18;;;;;;;18.37;nan;101032.22;5001509;28;20034;-78
2021/07/19 07:27:19;;;;;;;7.82;4.13;;;;;;;18.45;nan;101032.84;5003344;28;20053;-78
2021/07/19 07:29:46;;;;;;;9.88;4.40;;;;;;;18.78;nan;101030.06;5001317;28;20038;-79
2021/07/19 07:32:12;;;;;;;12.43;3.92;;;;;;;18.75;nan;101025.69;5021351;28;20120;-79
2021/07/19 07:34:37;;;;;;;9.60;4.03;;;;;;;18.59;nan;101035.09;4997305;28;20050;-79
2021/07/19 07:37:03;;;;;;;8.68;3.60;;;;;;;18.65;nan;101034.03;5001169;28;20054;-78
2021/07/19 07:39:28;;;;;;;11.23;5.20;;;;;;;18.56;nan;101041.41;4997144;28;20042;-78
2021/07/19 07:41:53;;;;;;;7.57;4.07;;;;;;;18.46;nan;101034.59;5002195;28;20037;-78
2021/07/19 07:44:19;;;;;;;9.40;4.70;;;;;;;18.43;nan;101026.69;4999556;28;20058;-78
2021/07/19 07:46:44;;;;;;;11.32;4.75;;;;;;;18.07;nan;101028.66;4983496;28;20026;-78
2021/07/19 07:49:10;;;;;;;10.30;4.72;;;;;;;18.05;nan;101019.81;4996741;28;20077;-78
2021/07/19 07:51:35;;;;;;;12.38;5.28;;;;;;;18.20;nan;101014.00;5017761;28;20049;-78
2021/07/19 07:54:00;;;;;;;13.60;5.32;;;;;;;18.37;nan;101006.38;5014391;28;20054;-78
2021/07/19 07:56:27;;;;;;;12.07;4.90;;;;;;;18.37;nan;101017.06;5017388;28;20034;-78
2021/07/19 07:58:52;;;;;;;12.35;4.97;;;;;;;18.17;nan;101014.97;5014635;28;20034;-78
2021/07/19 08:01:18;;;;;;;10.77;4.68;;;;;;;18.24;nan;101013.00;5015747;28;20098;-78
2021/07/19 08:03:43;;;;;;;10.25;4.85;;;;;;;18.29;nan;100997.72;5016025;28;20049;-78
2021/07/19 08:06:08;;;;;;;11.98;4.95;;;;;;;18.38;nan;101004.56;4997577;28;20504;-78
2021/07/19 08:08:34;;;;;;;8.82;4.82;;;;;;;18.58;nan;101014.66;4999435;28;20132;-78
2021/07/19 08:11:00;;;;;;;11.25;5.28;;;;;;;18.53;nan;101005.91;4997454;28;20057;-78
2021/07/19 08:13:25;;;;;;;11.95;5.18;;;;;;;18.66;nan;101001.03;5019119;28;20121;-79
2021/07/19 08:15:51;;;;;;;12.32;5.03;;;;;;;18.76;nan;101000.72;5012586;28;20038;-78
2021/07/19 08:18:16;;;;;;;12.95;5.28;;;;;;;18.81;nan;101001.44;5012379;28;20037;-78
2021/07/19 08:20:43;;;;;;;8.32;4.57;;;;;;;18.86;nan;101011.09;4989881;28;20034;-79
2021/07/19 08:23:09;;;;;;;9.95;5.40;;;;;;;19.03;nan;100995.38;5011825;28;20038;-78
2021/07/19 08:25:34;;;;;;;7.93;4.70;;;;;;;19.06;nan;100995.25;4986048;28;20042;-78
2021/07/19 08:28:00;;;;;;;10.18;4.78;;;;;;;19.08;nan;100996.09;4999140;28;20057;-78
2021/07/19 08:30:25;;;;;;;10.48;4.85;;;;;;;19.11;nan;100987.09;5016814;28;20045;-78
2021/07/19 08:32:51;;;;;;;9.70;4.90;;;;;;;19.09;nan;100989.81;5007820;28;20034;-78
2021/07/19 08:35:17;;;;;;;12.82;4.80;;;;;;;18.91;nan;100990.44;4983581;28;20128;-78
2021/07/19 08:37:46;;;;;;;16.50;6.95;;;;;;;18.92;nan;100984.16;5019113;28;20042;-78
2021/07/19 08:40:14;;;;;;;11.35;5.32;;;;;;;19.19;nan;100993.03;5015916;28;20086;-78
2021/07/19 08:42:40;;;;;;;10.18;4.43;;;;;;;19.54;nan;100977.53;5000382;28;20041;-78
2021/07/19 08:45:08;;;;;;;7.95;4.43;;;;;;;19.72;nan;100984.06;4999059;28;20038;-78
2021/07/19 08:47:36;;;;;;;10.85;4.40;;;;;;;19.96;nan;101004.56;5000684;28;20050;-79
2021/07/19 08:50:02;;;;;;;9.27;4.40;;;;;;;19.78;nan;100997.22;4999273;28;20037;-79
2021/07/19 08:52:27;;;;;;;12.73;4.63;;;;;;;19.52;nan;101003.47;4999295;28;20420;-79
2021/07/19 08:54:54;;;;;;;9.20;4.30;;;;;;;19.16;nan;101012.75;5017423;28;20030;-78
2021/07/19 08:57:20;;;;;;;9.25;3.88;;;;;;;19.28;nan;100992.72;4999446;28;20030;-78
2021/07/19 08:59:47;;;;;;;9.43;3.65;;;;;;;19.42;nan;101008.31;5018291;28;20451;-79
2021/07/19 09:02:12;;;;;;;8.82;4.10;;;;;;;19.39;nan;101011.09;4997516;28;20049;-78
2021/07/19 09:04:37;;;;;;;10.02;4.07;;;;;;;19.42;nan;101002.97;5000905;28;20053;-78
2021/07/19 09:07:04;;;;;;;11.43;4.28;;;;;;;19.50;nan;100998.19;5014314;28;20114;-78
2021/07/19 09:09:33;;;;;;;10.70;3.30;;;;;;;19.71;nan;101009.97;4998998;28;20488;-78
2021/07/19 09:12:05;;;;;;;8.43;3.72;;;;;;;19.95;nan;101002.81;5014249;28;20078;-78
2021/07/19 09:14:31;;;;;;;10.57;3.97;;;;;;;19.97;nan;100989.38;5017287;28;20037;-78
2021/07/19 09:16:56;;;;;;;8.60;3.28;;;;;;;20.08;nan;101001.44;5015370;28;20373;-78
2021/07/19 09:19:27;;;;;;;7.68;3.38;;;;;;;19.92;nan;100997.59;5014888;28;20117;-78
2021/07/19 09:21:58;;;;;;;7.38;3.30;;;;;;;20.09;nan;100988.91;4997018;28;20039;-78
2021/07/19 09:24:27;;;;;;;9.70;3.53;;;;;;;20.47;nan;100983.84;5015849;28;20053;-78
2021/07/19 09:26:54;;;;;;;6.38;2.85;;;;;;;20.64;nan;100980.50;5011325;28;20097;-78
2021/07/19 09:29:22;;;;;;;9.25;3.10;;;;;;;20.67;nan;100991.09;5015154;28;20046;-78
2021/07/19 09:31:55;;;;;;;9.32;2.83;;;;;;;20.45;nan;100981.22;5010536;28;20037;-78
2021/07/19 09:34:26;;;;;;;7.85;3.35;;;;;;;20.33;nan;100987.06;5013532;28;20062;-78
2021/07/19 09:37:02;;;;;;;7.25;3.08;;;;;;;20.70;nan;100977.59;5013458;28;20057;-78
2021/07/19 09:39:29;;;;;;;7.80;2.90;;;;;;;21.09;nan;100985.78;5008971;28;20038;-78
2021/07/19 09:42:13;;;;;;;9.27;2.72;;;;;;;20.87;nan;100982.25;5009249;28;20034;-78
2021/07/19 09:44:40;;;;;;;7.70;3.20;;;;;;;20.68;nan;100992.88;5012026;28;20026;-78
2021/07/19 09:47:08;;;;;;;9.18;3.60;;;;;;;20.92;nan;100981.13;5014725;28;20037;-78
2021/07/19 09:49:34;;;;;;;6.82;3.20;;;;;;;21.09;nan;100983.09;5013698;28;20504;-78
2021/07/19 09:52:05;;;;;;;7.68;3.20;;;;;;;20.65;nan;100982.28;5009336;28;20093;-78
2021/07/19 09:54:33;;;;;;;7.85;3.22;;;;;;;20.46;nan;100993.72;5014677;28;20095;-78
2021/07/19 09:57:00;;;;;;;8.88;3.47;;;;;;;20.86;nan;100986.75;5013010;28;20035;-78
2021/07/19 09:59:25;;;;;;;8.38;3.58;;;;;;;21.28;nan;100982.31;5015848;28;20109;-78
2021/07/19 10:01:51;;;;;;;8.45;3.75;;;;;;;21.52;nan;100980.38;5011180;28;20042;-78
2021/07/19 10:04:18;;;;;;;7.38;3.00;;;;;;;21.56;nan;100966.75;4958974;28;20065;-78
2021/07/19 10:07:02;;;;;;;6.38;2.58;;;;;;;21.35;nan;100981.06;5008662;28;20034;-78
2021/07/19 10:09:28;;;;;;;8.85;3.55;;;;;;;21.32;nan;100990.13;4986745;28;20026;-79
2021/07/19 10:11:55;;;;;;;11.40;3.78;;;;;;;21.34;nan;100980.22;5012428;28;20034;-79
2021/07/19 10:14:39;;;;;;;9.43;3.45;;;;;;;21.46;nan;100992.28;5015962;28;20113;-79
2021/07/19 10:17:04;;;;;;;7.95;3.00;;;;;;;21.34;nan;100996.31;4995170;28;20046;-78
2021/07/19 10:19:30;;;;;;;8.43;3.25;;;;;;;21.20;nan;101001.44;5007320;28;20034;-78
2021/07/19 10:21:56;;;;;;;8.80;2.65;;;;;;;20.83;nan;100985.97;5010925;28;20124;-78
2021/07/19 10:24:22;;;;;;;6.25;3.13;;;;;;;20.79;nan;100995.97;5006946;28;20470;-79
2021/07/19 10:26:49;;;;;;;7.82;3.08;;;;;;;21.09;nan;100983.09;5014941;28;20053;-79
2021/07/19 10:29:16;;;;;;;8.85;2.92;;;;;;;21.55;nan;100974.88;5017467;28;20042;-78
2021/07/19 10:31:42;;;;;;;7.10;3.28;;;;;;;21.66;nan;100983.31;5013271;28;20037;-79
2021/07/19 10:34:08;;;;;;;7.43;3.20;;;;;;;21.57;nan;100984.59;4993436;28;20450;-78
2021/07/19 10:36:44;;;;;;;8.27;3.10;;;;;;;21.74;nan;100988.34;5017000;28;20033;-79
2021/07/19 10:39:23;;;;;;;8.20;3.20;;;;;;;22.11;nan;100987.50;5014908;28;20033;-79
2021/07/19 10:42:05;;;;;;;7.35;3.42;;;;;;;21.92;nan;100992.00;5009527;28;20137;-78
2021/07/19 10:44:36;;;;;;;6.40;3.20;;;;;;;21.60;nan;100992.53;5018258;28;20025;-78
2021/07/19 10:47:25;;;;;;;9.48;3.17;;;;;;;21.38;nan;101000.66;4999084;28;20053;-78
2021/07/19 10:49:58;;;;;;;8.45;3.35;;;;;;;21.49;nan;100991.28;5014165;28;20088;-78
2021/07/19 10:52:38;;;;;;;7.03;3.72;;;;;;;21.33;nan;100996.41;5016151;28;20251;-79
2021/07/19 10:55:05;;;;;;;9.50;3.35;;;;;;;21.45;nan;100996.75;4994932;28;20619;-79
2021/07/19 10:57:35;;;;;;;6.90;3.33;;;;;;;21.60;nan;100995.22;4993399;28;20035;-78
2021/07/19 11:00:05;;;;;;;7.55;3.38;;;;;;;21.72;nan;100988.44;5009807;28;20073;-78
2021/07/19 11:02:31;;;;;;;9.25;3.25;;;;;;;21.82;nan;100987.06;5012798;28;20042;-78
2021/07/19 11:04:56;;;;;;;9.18;3.58;;;;;;;22.18;nan;100996.16;5016450;28;20037;-79
2021/07/19 11:07:25;;;;;;;9.57;3.55;;;;;;;21.93;nan;101009.84;5006996;28;20045;-79
2021/07/19 11:09:50;;;;;;;8.75;3.67;;;;;;;21.70;nan;100989.44;5005617;28;20041;-79
2021/07/19 11:12:16;;;;;;;9.32;4.00;;;;;;;21.62;nan;100993.34;5018959;28;20093;-79
2021/07/19 11:15:08;;;;;;;9.40;4.15;;;;;;;21.41;nan;100988.91;4999468;28;20088;-79
2021/07/19 11:17:33;;;;;;;8.23;4.68;;;;;;;21.82;nan;101000.50;4995249;28;20035;-79
2021/07/19 11:20:14;;;;;;;9.18;3.90;;;;;;;21.68;nan;100986.81;5020315;28;20041;-80
2021/07/19 11:22:41;;;;;;;10.60;3.53;;;;;;;22.11;nan;100984.81;4997762;28;20030;-79
2021/07/19 11:25:12;;;;;;;6.13;3.10;;;;;;;22.02;nan;100982.56;5018629;28;20038;-79
2021/07/19 11:27:43;;;;;;;7.32;3.85;;;;;;;21.81;nan;101008.63;5001731;28;20065;-79
2021/07/19 11:30:11;;;;;;;7.25;3.15;;;;;;;21.50;nan;100991.19;5015266;28;20037;-79
2021/07/19 11:32:40;;;;;;;7.50;3.63;;;;;;;21.57;nan;100989.13;5000733;28;20113;-79
2021/07/19 11:35:15;;;;;;;7.07;3.53;;;;;;;21.80;nan;100990.78;5017402;28;20680;-79
2021/07/19 11:37:44;;;;;;;15.43;3.17;;;;;;;22.05;nan;100990.50;5002588;28;20030;-79
2021/07/19 11:40:12;;;;;;;10.80;3.95;;;;;;;22.04;nan;100978.88;5017405;28;20045;-79
2021/07/19 11:42:43;;;;;;;6.45;3.67;;;;;;;22.45;nan;100985.94;5001789;28;20038;-79
2021/07/19 11:45:14;;;;;;;8.85;3.42;;;;;;;22.69;nan;100971.31;5017318;28;20038;-79